sensor_id;sensor_type;location;lat;lon;timestamp;P1;durP1;ratioP1;P2;durP2;ratioP2
11384;SDS011;5747;56.748;13.882;2023-07-13T00:01:13;10.97;;;5.80;;
11384;SDS011;5747;56.748;13.882;2023-07-13T00:03:41;7.83;;;4.63;;
11384;SDS011;5747;56.748;13.882;2023-07-13T00:06:10;7.80;;;4.27;;
11384;SDS011;5747;56.748;13.882;2023-07-13T00:08:38;9.53;;;5.20;;
11384;SDS011;5747;56.748;13.882;2023-07-13T00:11:07;9.20;;;4.30;;
11384;SDS011;5747;56.748;13.882;2023-07-13T00:13:37;8.50;;;4.43;;
11384;SDS011;5747;56.748;13.882;2023-07-13T00:16:07;10.73;;;4.50;;
11384;SDS011;5747;56.748;13.882;2023-07-13T00:18:36;9.40;;;4.50;;
11384;SDS011;5747;56.748;13.882;2023-07-13T00:21:05;12.53;;;4.63;;
11384;SDS011;5747;56.748;13.882;2023-07-13T00:23:33;13.90;;;4.47;;
11384;SDS011;5747;56.748;13.882;2023-07-13T00:26:01;9.93;;;4.40;;
11384;SDS011;5747;56.748;13.882;2023-07-13T00:28:31;6.37;;;4.07;;
11384;SDS011;5747;56.748;13.882;2023-07-13T00:30:59;5.47;;;3.77;;
11384;SDS011;5747;56.748;13.882;2023-07-13T00:33:29;6.20;;;4.30;;
11384;SDS011;5747;56.748;13.882;2023-07-13T00:35:57;4.70;;;4.20;;
11384;SDS011;5747;56.748;13.882;2023-07-13T00:38:26;7.30;;;4.70;;
11384;SDS011;5747;56.748;13.882;2023-07-13T00:40:54;6.53;;;3.90;;
11384;SDS011;5747;56.748;13.882;2023-07-13T00:43:23;7.90;;;4.13;;
11384;SDS011;5747;56.748;13.882;2023-07-13T00:46:14;9.83;;;4.30;;
11384;SDS011;5747;56.748;13.882;2023-07-13T00:48:47;7.33;;;4.40;;
11384;SDS011;5747;56.748;13.882;2023-07-13T00:51:17;6.10;;;4.67;;
11384;SDS011;5747;56.748;13.882;2023-07-13T00:53:49;11.17;;;4.47;;
11384;SDS011;5747;56.748;13.882;2023-07-13T00:56:19;10.67;;;4.80;;
11384;SDS011;5747;56.748;13.882;2023-07-13T00:58:47;8.20;;;4.60;;
11384;SDS011;5747;56.748;13.882;2023-07-13T01:01:17;11.17;;;4.73;;
11384;SDS011;5747;56.748;13.882;2023-07-13T01:03:47;9.57;;;4.50;;
11384;SDS011;5747;56.748;13.882;2023-07-13T01:06:15;8.67;;;5.00;;
11384;SDS011;5747;56.748;13.882;2023-07-13T01:08:44;11.37;;;5.23;;
11384;SDS011;5747;56.748;13.882;2023-07-13T01:11:13;9.57;;;5.20;;
11384;SDS011;5747;56.748;13.882;2023-07-13T01:13:46;7.17;;;4.60;;
11384;SDS011;5747;56.748;13.882;2023-07-13T01:16:15;9.30;;;4.67;;
11384;SDS011;5747;56.748;13.882;2023-07-13T01:18:51;8.27;;;4.90;;
11384;SDS011;5747;56.748;13.882;2023-07-13T01:21:20;60.23;;;6.40;;
11384;SDS011;5747;56.748;13.882;2023-07-13T01:23:48;11.73;;;4.27;;
11384;SDS011;5747;56.748;13.882;2023-07-13T01:26:17;22.40;;;5.20;;
11384;SDS011;5747;56.748;13.882;2023-07-13T01:28:45;9.67;;;4.07;;
11384;SDS011;5747;56.748;13.882;2023-07-13T01:31:13;6.47;;;4.13;;
11384;SDS011;5747;56.748;13.882;2023-07-13T01:33:41;9.73;;;4.40;;
11384;SDS011;5747;56.748;13.882;2023-07-13T01:36:10;12.43;;;4.40;;
11384;SDS011;5747;56.748;13.882;2023-07-13T01:38:41;13.60;;;4.90;;
11384;SDS011;5747;56.748;13.882;2023-07-13T01:41:10;5.90;;;4.17;;
11384;SDS011;5747;56.748;13.882;2023-07-13T01:43:38;9.30;;;4.60;;
11384;SDS011;5747;56.748;13.882;2023-07-13T01:46:07;6.23;;;4.60;;
11384;SDS011;5747;56.748;13.882;2023-07-13T01:48:42;12.40;;;4.30;;
11384;SDS011;5747;56.748;13.882;2023-07-13T01:51:15;9.17;;;4.40;;
11384;SDS011;5747;56.748;13.882;2023-07-13T01:53:45;6.57;;;3.73;;
11384;SDS011;5747;56.748;13.882;2023-07-13T01:56:13;9.77;;;4.20;;
11384;SDS011;5747;56.748;13.882;2023-07-13T01:58:42;7.30;;;4.30;;
11384;SDS011;5747;56.748;13.882;2023-07-13T02:01:10;10.53;;;4.53;;
11384;SDS011;5747;56.748;13.882;2023-07-13T02:03:38;10.27;;;4.47;;
11384;SDS011;5747;56.748;13.882;2023-07-13T02:06:06;7.50;;;4.30;;
11384;SDS011;5747;56.748;13.882;2023-07-13T02:08:35;6.47;;;4.13;;
11384;SDS011;5747;56.748;13.882;2023-07-13T02:11:06;10.93;;;4.67;;
11384;SDS011;5747;56.748;13.882;2023-07-13T02:13:34;13.93;;;5.30;;
11384;SDS011;5747;56.748;13.882;2023-07-13T02:16:02;7.17;;;4.53;;
11384;SDS011;5747;56.748;13.882;2023-07-13T02:18:30;16.53;;;5.10;;
11384;SDS011;5747;56.748;13.882;2023-07-13T02:20:59;6.17;;;4.40;;
11384;SDS011;5747;56.748;13.882;2023-07-13T02:23:27;6.90;;;4.60;;
11384;SDS011;5747;56.748;13.882;2023-07-13T02:25:55;9.87;;;4.60;;
11384;SDS011;5747;56.748;13.882;2023-07-13T02:28:25;8.20;;;4.47;;
11384;SDS011;5747;56.748;13.882;2023-07-13T02:30:53;10.97;;;4.77;;
11384;SDS011;5747;56.748;13.882;2023-07-13T02:33:21;11.37;;;4.40;;
11384;SDS011;5747;56.748;13.882;2023-07-13T02:35:49;7.23;;;4.10;;
11384;SDS011;5747;56.748;13.882;2023-07-13T02:38:18;8.10;;;4.40;;
11384;SDS011;5747;56.748;13.882;2023-07-13T02:40:46;11.47;;;5.00;;
11384;SDS011;5747;56.748;13.882;2023-07-13T02:43:15;13.47;;;5.00;;
11384;SDS011;5747;56.748;13.882;2023-07-13T02:45:45;12.90;;;5.03;;
11384;SDS011;5747;56.748;13.882;2023-07-13T02:48:13;8.37;;;4.73;;
11384;SDS011;5747;56.748;13.882;2023-07-13T02:50:42;11.57;;;5.17;;
11384;SDS011;5747;56.748;13.882;2023-07-13T02:53:11;10.33;;;4.90;;
11384;SDS011;5747;56.748;13.882;2023-07-13T02:55:39;11.10;;;5.00;;
11384;SDS011;5747;56.748;13.882;2023-07-13T02:58:13;9.90;;;4.77;;
11384;SDS011;5747;56.748;13.882;2023-07-13T03:00:45;8.47;;;4.90;;
11384;SDS011;5747;56.748;13.882;2023-07-13T03:03:14;15.07;;;5.27;;
11384;SDS011;5747;56.748;13.882;2023-07-13T03:05:43;12.93;;;4.70;;
11384;SDS011;5747;56.748;13.882;2023-07-13T03:08:21;5.53;;;4.43;;
11384;SDS011;5747;56.748;13.882;2023-07-13T03:10:58;11.17;;;4.87;;
11384;SDS011;5747;56.748;13.882;2023-07-13T03:13:30;11.33;;;4.77;;
11384;SDS011;5747;56.748;13.882;2023-07-13T03:16:01;7.00;;;4.97;;
11384;SDS011;5747;56.748;13.882;2023-07-13T03:18:29;9.80;;;4.53;;
11384;SDS011;5747;56.748;13.882;2023-07-13T03:21:01;10.13;;;4.60;;
11384;SDS011;5747;56.748;13.882;2023-07-13T03:23:30;7.47;;;4.00;;
11384;SDS011;5747;56.748;13.882;2023-07-13T03:26:02;6.93;;;3.80;;
11384;SDS011;5747;56.748;13.882;2023-07-13T03:28:32;9.57;;;4.17;;
11384;SDS011;5747;56.748;13.882;2023-07-13T03:31:04;8.20;;;3.77;;
11384;SDS011;5747;56.748;13.882;2023-07-13T03:33:34;7.73;;;4.40;;
11384;SDS011;5747;56.748;13.882;2023-07-13T03:36:04;7.70;;;3.80;;
11384;SDS011;5747;56.748;13.882;2023-07-13T03:38:35;10.03;;;4.10;;
11384;SDS011;5747;56.748;13.882;2023-07-13T03:41:03;7.73;;;3.57;;
11384;SDS011;5747;56.748;13.882;2023-07-13T03:43:32;5.20;;;2.93;;
11384;SDS011;5747;56.748;13.882;2023-07-13T03:46:00;4.53;;;2.93;;
11384;SDS011;5747;56.748;13.882;2023-07-13T03:48:30;8.13;;;3.20;;
11384;SDS011;5747;56.748;13.882;2023-07-13T03:50:58;4.57;;;2.77;;
11384;SDS011;5747;56.748;13.882;2023-07-13T03:53:26;3.87;;;2.90;;
11384;SDS011;5747;56.748;13.882;2023-07-13T03:55:55;5.40;;;2.87;;
11384;SDS011;5747;56.748;13.882;2023-07-13T03:58:30;5.40;;;2.33;;
11384;SDS011;5747;56.748;13.882;2023-07-13T04:01:10;3.20;;;2.40;;
11384;SDS011;5747;56.748;13.882;2023-07-13T04:03:40;4.30;;;2.73;;
11384;SDS011;5747;56.748;13.882;2023-07-13T04:06:13;4.07;;;2.70;;
11384;SDS011;5747;56.748;13.882;2023-07-13T04:08:48;4.83;;;2.37;;
11384;SDS011;5747;56.748;13.882;2023-07-13T04:11:17;7.20;;;2.90;;
11384;SDS011;5747;56.748;13.882;2023-07-13T04:13:46;4.43;;;2.60;;
11384;SDS011;5747;56.748;13.882;2023-07-13T04:16:15;4.47;;;3.00;;
11384;SDS011;5747;56.748;13.882;2023-07-13T04:18:46;5.17;;;3.00;;
11384;SDS011;5747;56.748;13.882;2023-07-13T04:21:15;4.63;;;2.80;;
11384;SDS011;5747;56.748;13.882;2023-07-13T04:23:43;4.57;;;2.90;;
11384;SDS011;5747;56.748;13.882;2023-07-13T04:26:12;6.20;;;2.90;;
11384;SDS011;5747;56.748;13.882;2023-07-13T04:28:40;6.33;;;2.50;;
11384;SDS011;5747;56.748;13.882;2023-07-13T04:31:08;3.80;;;2.63;;
11384;SDS011;5747;56.748;13.882;2023-07-13T04:33:36;2.93;;;2.40;;
11384;SDS011;5747;56.748;13.882;2023-07-13T04:36:06;6.23;;;2.20;;
11384;SDS011;5747;56.748;13.882;2023-07-13T04:38:36;6.13;;;2.50;;
11384;SDS011;5747;56.748;13.882;2023-07-13T04:41:06;4.07;;;2.40;;
11384;SDS011;5747;56.748;13.882;2023-07-13T04:43:35;4.20;;;2.13;;
11384;SDS011;5747;56.748;13.882;2023-07-13T04:46:04;5.30;;;2.10;;
11384;SDS011;5747;56.748;13.882;2023-07-13T04:48:34;6.53;;;2.00;;
11384;SDS011;5747;56.748;13.882;2023-07-13T04:51:02;5.03;;;2.20;;
11384;SDS011;5747;56.748;13.882;2023-07-13T04:53:32;4.40;;;2.10;;
11384;SDS011;5747;56.748;13.882;2023-07-13T04:56:01;5.37;;;2.20;;
11384;SDS011;5747;56.748;13.882;2023-07-13T04:58:30;5.83;;;2.50;;
11384;SDS011;5747;56.748;13.882;2023-07-13T05:00:59;4.37;;;2.50;;
11384;SDS011;5747;56.748;13.882;2023-07-13T05:03:28;6.03;;;2.40;;
11384;SDS011;5747;56.748;13.882;2023-07-13T05:05:58;6.17;;;2.90;;
11384;SDS011;5747;56.748;13.882;2023-07-13T05:08:28;6.30;;;2.50;;
11384;SDS011;5747;56.748;13.882;2023-07-13T05:10:58;7.17;;;2.60;;
11384;SDS011;5747;56.748;13.882;2023-07-13T05:13:27;8.20;;;3.00;;
11384;SDS011;5747;56.748;13.882;2023-07-13T05:15:57;5.87;;;2.97;;
11384;SDS011;5747;56.748;13.882;2023-07-13T05:18:26;6.17;;;2.97;;
11384;SDS011;5747;56.748;13.882;2023-07-13T05:20:58;5.83;;;2.97;;
11384;SDS011;5747;56.748;13.882;2023-07-13T05:23:28;10.23;;;3.63;;
11384;SDS011;5747;56.748;13.882;2023-07-13T05:25:58;8.63;;;3.60;;
11384;SDS011;5747;56.748;13.882;2023-07-13T05:28:27;6.77;;;3.77;;
11384;SDS011;5747;56.748;13.882;2023-07-13T05:30:56;9.03;;;3.53;;
11384;SDS011;5747;56.748;13.882;2023-07-13T05:33:25;5.80;;;3.57;;
11384;SDS011;5747;56.748;13.882;2023-07-13T05:35:55;5.10;;;3.53;;
11384;SDS011;5747;56.748;13.882;2023-07-13T05:38:23;7.50;;;3.87;;
11384;SDS011;5747;56.748;13.882;2023-07-13T05:40:53;6.33;;;3.60;;
11384;SDS011;5747;56.748;13.882;2023-07-13T05:43:23;5.30;;;3.20;;
11384;SDS011;5747;56.748;13.882;2023-07-13T05:45:52;7.73;;;3.53;;
11384;SDS011;5747;56.748;13.882;2023-07-13T05:48:22;7.73;;;3.47;;
11384;SDS011;5747;56.748;13.882;2023-07-13T05:50:50;7.37;;;3.23;;
11384;SDS011;5747;56.748;13.882;2023-07-13T05:53:18;6.37;;;3.13;;
11384;SDS011;5747;56.748;13.882;2023-07-13T05:55:46;6.10;;;3.57;;
11384;SDS011;5747;56.748;13.882;2023-07-13T05:58:16;6.10;;;2.83;;
11384;SDS011;5747;56.748;13.882;2023-07-13T06:00:46;7.43;;;2.70;;
11384;SDS011;5747;56.748;13.882;2023-07-13T06:03:15;5.87;;;2.67;;
11384;SDS011;5747;56.748;13.882;2023-07-13T06:05:43;9.30;;;3.30;;
11384;SDS011;5747;56.748;13.882;2023-07-13T06:08:12;8.37;;;3.27;;
11384;SDS011;5747;56.748;13.882;2023-07-13T06:10:40;7.67;;;3.00;;
11384;SDS011;5747;56.748;13.882;2023-07-13T06:13:08;5.80;;;2.80;;
11384;SDS011;5747;56.748;13.882;2023-07-13T06:15:36;5.87;;;3.00;;
11384;SDS011;5747;56.748;13.882;2023-07-13T06:18:05;6.03;;;3.33;;
11384;SDS011;5747;56.748;13.882;2023-07-13T06:20:34;7.37;;;3.00;;
11384;SDS011;5747;56.748;13.882;2023-07-13T06:23:02;5.30;;;3.23;;
11384;SDS011;5747;56.748;13.882;2023-07-13T06:25:30;7.17;;;3.17;;
11384;SDS011;5747;56.748;13.882;2023-07-13T06:27:58;6.93;;;3.20;;
11384;SDS011;5747;56.748;13.882;2023-07-13T06:30:26;6.23;;;3.03;;
11384;SDS011;5747;56.748;13.882;2023-07-13T06:32:55;5.80;;;2.97;;
11384;SDS011;5747;56.748;13.882;2023-07-13T06:35:24;5.03;;;2.87;;
11384;SDS011;5747;56.748;13.882;2023-07-13T06:37:53;7.33;;;3.37;;
11384;SDS011;5747;56.748;13.882;2023-07-13T06:40:21;7.57;;;2.93;;
11384;SDS011;5747;56.748;13.882;2023-07-13T06:42:49;7.63;;;3.00;;
11384;SDS011;5747;56.748;13.882;2023-07-13T06:45:17;6.93;;;3.00;;
11384;SDS011;5747;56.748;13.882;2023-07-13T06:47:45;5.70;;;2.90;;
11384;SDS011;5747;56.748;13.882;2023-07-13T06:50:14;7.00;;;2.33;;
11384;SDS011;5747;56.748;13.882;2023-07-13T06:52:43;6.67;;;2.53;;
11384;SDS011;5747;56.748;13.882;2023-07-13T06:55:11;4.77;;;2.20;;
11384;SDS011;5747;56.748;13.882;2023-07-13T06:57:39;3.40;;;2.30;;
11384;SDS011;5747;56.748;13.882;2023-07-13T07:00:08;4.50;;;2.20;;
11384;SDS011;5747;56.748;13.882;2023-07-13T07:02:37;5.20;;;2.07;;
11384;SDS011;5747;56.748;13.882;2023-07-13T07:05:05;8.03;;;2.50;;
11384;SDS011;5747;56.748;13.882;2023-07-13T07:07:34;7.10;;;2.30;;
11384;SDS011;5747;56.748;13.882;2023-07-13T07:10:03;3.70;;;2.10;;
11384;SDS011;5747;56.748;13.882;2023-07-13T07:12:32;4.57;;;2.20;;
11384;SDS011;5747;56.748;13.882;2023-07-13T07:15:00;8.23;;;2.30;;
11384;SDS011;5747;56.748;13.882;2023-07-13T07:17:28;5.23;;;2.50;;
11384;SDS011;5747;56.748;13.882;2023-07-13T07:19:57;4.67;;;2.40;;
11384;SDS011;5747;56.748;13.882;2023-07-13T07:22:25;3.63;;;2.30;;
11384;SDS011;5747;56.748;13.882;2023-07-13T07:24:54;3.33;;;2.27;;
11384;SDS011;5747;56.748;13.882;2023-07-13T07:27:23;5.23;;;2.20;;
11384;SDS011;5747;56.748;13.882;2023-07-13T07:29:55;4.23;;;2.37;;
11384;SDS011;5747;56.748;13.882;2023-07-13T07:32:28;6.47;;;2.67;;
11384;SDS011;5747;56.748;13.882;2023-07-13T07:35:16;4.93;;;2.30;;
11384;SDS011;5747;56.748;13.882;2023-07-13T07:37:45;8.40;;;2.43;;
11384;SDS011;5747;56.748;13.882;2023-07-13T07:40:16;6.00;;;2.40;;
11384;SDS011;5747;56.748;13.882;2023-07-13T07:42:48;11.20;;;2.37;;
11384;SDS011;5747;56.748;13.882;2023-07-13T07:45:16;4.57;;;2.00;;
11384;SDS011;5747;56.748;13.882;2023-07-13T07:47:44;3.50;;;1.90;;
11384;SDS011;5747;56.748;13.882;2023-07-13T07:50:13;3.10;;;2.00;;
11384;SDS011;5747;56.748;13.882;2023-07-13T07:52:41;4.40;;;1.90;;
11384;SDS011;5747;56.748;13.882;2023-07-13T07:55:10;4.10;;;2.17;;
11384;SDS011;5747;56.748;13.882;2023-07-13T07:57:41;2.90;;;1.90;;
11384;SDS011;5747;56.748;13.882;2023-07-13T08:00:15;4.67;;;2.00;;
11384;SDS011;5747;56.748;13.882;2023-07-13T08:02:46;4.43;;;1.90;;
11384;SDS011;5747;56.748;13.882;2023-07-13T08:05:18;3.90;;;2.00;;
11384;SDS011;5747;56.748;13.882;2023-07-13T08:08:02;4.50;;;2.00;;
11384;SDS011;5747;56.748;13.882;2023-07-13T08:10:31;3.87;;;1.90;;
11384;SDS011;5747;56.748;13.882;2023-07-13T08:12:59;5.47;;;2.20;;
11384;SDS011;5747;56.748;13.882;2023-07-13T08:15:31;6.00;;;2.00;;
11384;SDS011;5747;56.748;13.882;2023-07-13T08:17:59;6.67;;;2.20;;
11384;SDS011;5747;56.748;13.882;2023-07-13T08:20:28;8.37;;;2.80;;
11384;SDS011;5747;56.748;13.882;2023-07-13T08:22:56;3.90;;;2.17;;
11384;SDS011;5747;56.748;13.882;2023-07-13T08:25:24;9.97;;;2.10;;
11384;SDS011;5747;56.748;13.882;2023-07-13T08:27:52;4.53;;;2.20;;
11384;SDS011;5747;56.748;13.882;2023-07-13T08:30:20;4.70;;;2.00;;
11384;SDS011;5747;56.748;13.882;2023-07-13T08:32:50;4.77;;;1.80;;
11384;SDS011;5747;56.748;13.882;2023-07-13T08:35:19;5.50;;;1.73;;
11384;SDS011;5747;56.748;13.882;2023-07-13T08:37:47;5.17;;;1.93;;
11384;SDS011;5747;56.748;13.882;2023-07-13T08:40:16;2.83;;;2.00;;
11384;SDS011;5747;56.748;13.882;2023-07-13T08:42:50;5.40;;;2.43;;
11384;SDS011;5747;56.748;13.882;2023-07-13T08:45:23;6.03;;;1.93;;
11384;SDS011;5747;56.748;13.882;2023-07-13T08:48:00;4.20;;;2.10;;
11384;SDS011;5747;56.748;13.882;2023-07-13T08:50:33;4.70;;;2.13;;
11384;SDS011;5747;56.748;13.882;2023-07-13T08:53:25;3.77;;;2.30;;
11384;SDS011;5747;56.748;13.882;2023-07-13T08:56:02;4.83;;;2.20;;
11384;SDS011;5747;56.748;13.882;2023-07-13T08:58:35;4.07;;;2.67;;
11384;SDS011;5747;56.748;13.882;2023-07-13T09:01:05;5.23;;;2.37;;
11384;SDS011;5747;56.748;13.882;2023-07-13T09:03:49;4.00;;;2.50;;
11384;SDS011;5747;56.748;13.882;2023-07-13T09:06:33;5.47;;;2.57;;
11384;SDS011;5747;56.748;13.882;2023-07-13T09:09:10;5.20;;;2.40;;
11384;SDS011;5747;56.748;13.882;2023-07-13T09:11:49;3.53;;;2.00;;
11384;SDS011;5747;56.748;13.882;2023-07-13T09:14:26;2.40;;;1.77;;
11384;SDS011;5747;56.748;13.882;2023-07-13T09:17:03;4.67;;;1.90;;
11384;SDS011;5747;56.748;13.882;2023-07-13T09:19:34;10.63;;;2.83;;
11384;SDS011;5747;56.748;13.882;2023-07-13T09:22:03;12.33;;;3.03;;
11384;SDS011;5747;56.748;13.882;2023-07-13T09:24:38;3.80;;;2.30;;
11384;SDS011;5747;56.748;13.882;2023-07-13T09:27:11;5.43;;;2.37;;
11384;SDS011;5747;56.748;13.882;2023-07-13T09:29:45;5.43;;;2.20;;
11384;SDS011;5747;56.748;13.882;2023-07-13T09:32:18;4.20;;;1.97;;
11384;SDS011;5747;56.748;13.882;2023-07-13T09:34:52;4.43;;;2.20;;
11384;SDS011;5747;56.748;13.882;2023-07-13T09:37:21;4.90;;;1.90;;
11384;SDS011;5747;56.748;13.882;2023-07-13T09:39:55;3.23;;;1.90;;
11384;SDS011;5747;56.748;13.882;2023-07-13T09:42:25;4.40;;;2.10;;
11384;SDS011;5747;56.748;13.882;2023-07-13T09:44:55;3.23;;;1.90;;
11384;SDS011;5747;56.748;13.882;2023-07-13T09:47:29;4.87;;;1.70;;
11384;SDS011;5747;56.748;13.882;2023-07-13T09:50:01;3.23;;;2.10;;
11384;SDS011;5747;56.748;13.882;2023-07-13T09:52:39;5.73;;;2.10;;
11384;SDS011;5747;56.748;13.882;2023-07-13T09:55:23;4.77;;;2.13;;
11384;SDS011;5747;56.748;13.882;2023-07-13T09:57:54;3.30;;;2.03;;
11384;SDS011;5747;56.748;13.882;2023-07-13T10:00:23;4.93;;;2.40;;
11384;SDS011;5747;56.748;13.882;2023-07-13T10:03:04;11.57;;;2.40;;
11384;SDS011;5747;56.748;13.882;2023-07-13T10:05:39;9.80;;;3.07;;
11384;SDS011;5747;56.748;13.882;2023-07-13T10:08:16;11.43;;;4.30;;
11384;SDS011;5747;56.748;13.882;2023-07-13T10:10:57;9.73;;;3.67;;
11384;SDS011;5747;56.748;13.882;2023-07-13T10:13:27;6.90;;;3.47;;
11384;SDS011;5747;56.748;13.882;2023-07-13T10:16:00;9.10;;;3.43;;
11384;SDS011;5747;56.748;13.882;2023-07-13T10:18:38;8.03;;;3.30;;
11384;SDS011;5747;56.748;13.882;2023-07-13T10:21:12;6.23;;;3.20;;
11384;SDS011;5747;56.748;13.882;2023-07-13T10:23:47;6.27;;;3.43;;
11384;SDS011;5747;56.748;13.882;2023-07-13T10:26:21;6.37;;;3.33;;
11384;SDS011;5747;56.748;13.882;2023-07-13T10:28:53;7.70;;;3.40;;
11384;SDS011;5747;56.748;13.882;2023-07-13T10:31:24;6.27;;;3.07;;
11384;SDS011;5747;56.748;13.882;2023-07-13T10:33:52;4.97;;;2.60;;
11384;SDS011;5747;56.748;13.882;2023-07-13T10:36:27;7.03;;;3.30;;
11384;SDS011;5747;56.748;13.882;2023-07-13T10:38:59;7.73;;;3.57;;
11384;SDS011;5747;56.748;13.882;2023-07-13T10:41:31;7.67;;;3.30;;
11384;SDS011;5747;56.748;13.882;2023-07-13T10:44:04;9.00;;;3.37;;
11384;SDS011;5747;56.748;13.882;2023-07-13T10:46:37;6.60;;;3.33;;
11384;SDS011;5747;56.748;13.882;2023-07-13T10:49:05;7.07;;;4.07;;
11384;SDS011;5747;56.748;13.882;2023-07-13T10:51:39;7.37;;;4.10;;
11384;SDS011;5747;56.748;13.882;2023-07-13T10:54:15;7.93;;;3.97;;
11384;SDS011;5747;56.748;13.882;2023-07-13T10:56:48;6.80;;;3.73;;
11384;SDS011;5747;56.748;13.882;2023-07-13T10:59:18;7.17;;;3.20;;
11384;SDS011;5747;56.748;13.882;2023-07-13T11:01:55;6.90;;;2.73;;
11384;SDS011;5747;56.748;13.882;2023-07-13T11:04:26;5.53;;;2.93;;
11384;SDS011;5747;56.748;13.882;2023-07-13T11:06:58;2.63;;;2.20;;
11384;SDS011;5747;56.748;13.882;2023-07-13T11:09:39;7.10;;;2.50;;
11384;SDS011;5747;56.748;13.882;2023-07-13T11:12:25;5.00;;;2.17;;
11384;SDS011;5747;56.748;13.882;2023-07-13T11:15:04;6.03;;;2.30;;
11384;SDS011;5747;56.748;13.882;2023-07-13T11:17:45;7.90;;;2.60;;
11384;SDS011;5747;56.748;13.882;2023-07-13T11:20:20;5.03;;;2.23;;
11384;SDS011;5747;56.748;13.882;2023-07-13T11:23:09;4.67;;;2.17;;
11384;SDS011;5747;56.748;13.882;2023-07-13T11:25:54;4.67;;;2.13;;
11384;SDS011;5747;56.748;13.882;2023-07-13T11:28:23;2.57;;;2.00;;
11384;SDS011;5747;56.748;13.882;2023-07-13T11:31:00;3.47;;;2.00;;
11384;SDS011;5747;56.748;13.882;2023-07-13T11:33:48;2.97;;;1.67;;
11384;SDS011;5747;56.748;13.882;2023-07-13T11:36:29;5.30;;;1.80;;
11384;SDS011;5747;56.748;13.882;2023-07-13T11:39:02;3.70;;;1.90;;
11384;SDS011;5747;56.748;13.882;2023-07-13T11:41:34;4.07;;;1.87;;
11384;SDS011;5747;56.748;13.882;2023-07-13T11:44:11;2.00;;;1.40;;
11384;SDS011;5747;56.748;13.882;2023-07-13T11:46:44;2.83;;;1.40;;
11384;SDS011;5747;56.748;13.882;2023-07-13T11:49:15;3.50;;;1.50;;
11384;SDS011;5747;56.748;13.882;2023-07-13T11:51:44;3.33;;;1.33;;
11384;SDS011;5747;56.748;13.882;2023-07-13T11:54:25;6.27;;;1.87;;
11384;SDS011;5747;56.748;13.882;2023-07-13T11:56:57;2.83;;;1.63;;
11384;SDS011;5747;56.748;13.882;2023-07-13T11:59:32;3.17;;;1.70;;
11384;SDS011;5747;56.748;13.882;2023-07-13T12:02:08;4.23;;;1.50;;
11384;SDS011;5747;56.748;13.882;2023-07-13T12:04:44;3.10;;;1.50;;
11384;SDS011;5747;56.748;13.882;2023-07-13T12:07:14;4.17;;;1.70;;
11384;SDS011;5747;56.748;13.882;2023-07-13T12:09:45;3.73;;;1.40;;
11384;SDS011;5747;56.748;13.882;2023-07-13T12:12:14;3.47;;;1.50;;
11384;SDS011;5747;56.748;13.882;2023-07-13T12:14:45;5.17;;;1.53;;
11384;SDS011;5747;56.748;13.882;2023-07-13T12:17:15;4.77;;;1.60;;
11384;SDS011;5747;56.748;13.882;2023-07-13T12:19:46;2.97;;;1.67;;
11384;SDS011;5747;56.748;13.882;2023-07-13T12:22:15;3.20;;;1.50;;
11384;SDS011;5747;56.748;13.882;2023-07-13T12:24:47;2.63;;;1.50;;
11384;SDS011;5747;56.748;13.882;2023-07-13T12:27:18;4.17;;;1.53;;
11384;SDS011;5747;56.748;13.882;2023-07-13T12:29:50;3.47;;;1.30;;
11384;SDS011;5747;56.748;13.882;2023-07-13T12:32:20;3.27;;;1.90;;
11384;SDS011;5747;56.748;13.882;2023-07-13T12:34:52;4.23;;;1.53;;
11384;SDS011;5747;56.748;13.882;2023-07-13T12:37:22;3.67;;;1.50;;
11384;SDS011;5747;56.748;13.882;2023-07-13T12:39:53;3.20;;;1.50;;
11384;SDS011;5747;56.748;13.882;2023-07-13T12:42:22;5.90;;;1.80;;
11384;SDS011;5747;56.748;13.882;2023-07-13T12:44:56;4.03;;;1.53;;
11384;SDS011;5747;56.748;13.882;2023-07-13T12:47:26;3.03;;;1.30;;
11384;SDS011;5747;56.748;13.882;2023-07-13T12:49:57;3.00;;;1.40;;
11384;SDS011;5747;56.748;13.882;2023-07-13T12:52:29;2.93;;;1.70;;
11384;SDS011;5747;56.748;13.882;2023-07-13T12:55:04;3.93;;;1.70;;
11384;SDS011;5747;56.748;13.882;2023-07-13T12:57:40;2.73;;;1.30;;
11384;SDS011;5747;56.748;13.882;2023-07-13T13:00:19;3.00;;;1.47;;
11384;SDS011;5747;56.748;13.882;2023-07-13T13:02:53;4.17;;;1.70;;
11384;SDS011;5747;56.748;13.882;2023-07-13T13:05:43;4.07;;;1.63;;
11384;SDS011;5747;56.748;13.882;2023-07-13T13:08:12;3.07;;;1.53;;
11384;SDS011;5747;56.748;13.882;2023-07-13T13:10:42;2.93;;;1.40;;
11384;SDS011;5747;56.748;13.882;2023-07-13T13:13:11;2.47;;;1.40;;
11384;SDS011;5747;56.748;13.882;2023-07-13T13:15:40;2.97;;;1.53;;
11384;SDS011;5747;56.748;13.882;2023-07-13T13:18:13;2.63;;;1.50;;
11384;SDS011;5747;56.748;13.882;2023-07-13T13:20:44;3.20;;;1.67;;
11384;SDS011;5747;56.748;13.882;2023-07-13T13:23:13;3.17;;;1.50;;
11384;SDS011;5747;56.748;13.882;2023-07-13T13:25:46;2.80;;;1.50;;
11384;SDS011;5747;56.748;13.882;2023-07-13T13:28:16;3.20;;;1.53;;
11384;SDS011;5747;56.748;13.882;2023-07-13T13:30:47;4.83;;;1.40;;
11384;SDS011;5747;56.748;13.882;2023-07-13T13:33:17;3.07;;;1.40;;
11384;SDS011;5747;56.748;13.882;2023-07-13T13:35:48;4.67;;;1.50;;
11384;SDS011;5747;56.748;13.882;2023-07-13T13:38:17;2.13;;;1.33;;
11384;SDS011;5747;56.748;13.882;2023-07-13T13:40:48;3.10;;;1.73;;
11384;SDS011;5747;56.748;13.882;2023-07-13T13:43:17;5.90;;;1.50;;
11384;SDS011;5747;56.748;13.882;2023-07-13T13:45:45;3.93;;;1.60;;
11384;SDS011;5747;56.748;13.882;2023-07-13T13:48:15;4.47;;;1.37;;
11384;SDS011;5747;56.748;13.882;2023-07-13T13:50:45;5.10;;;1.60;;
11384;SDS011;5747;56.748;13.882;2023-07-13T13:53:13;4.43;;;1.70;;
11384;SDS011;5747;56.748;13.882;2023-07-13T13:55:42;4.90;;;1.60;;
11384;SDS011;5747;56.748;13.882;2023-07-13T13:58:11;5.67;;;1.50;;
11384;SDS011;5747;56.748;13.882;2023-07-13T14:00:40;4.43;;;1.70;;
11384;SDS011;5747;56.748;13.882;2023-07-13T14:03:13;3.47;;;1.57;;
11384;SDS011;5747;56.748;13.882;2023-07-13T14:05:43;4.57;;;1.60;;
11384;SDS011;5747;56.748;13.882;2023-07-13T14:08:14;3.47;;;1.60;;
11384;SDS011;5747;56.748;13.882;2023-07-13T14:10:42;4.13;;;1.63;;
11384;SDS011;5747;56.748;13.882;2023-07-13T14:13:16;3.37;;;1.60;;
11384;SDS011;5747;56.748;13.882;2023-07-13T14:15:46;4.30;;;1.60;;
11384;SDS011;5747;56.748;13.882;2023-07-13T14:18:15;4.37;;;1.70;;
11384;SDS011;5747;56.748;13.882;2023-07-13T14:20:44;3.03;;;1.50;;
11384;SDS011;5747;56.748;13.882;2023-07-13T14:23:13;3.33;;;1.50;;
11384;SDS011;5747;56.748;13.882;2023-07-13T14:25:44;5.37;;;2.00;;
11384;SDS011;5747;56.748;13.882;2023-07-13T14:28:17;4.70;;;1.90;;
11384;SDS011;5747;56.748;13.882;2023-07-13T14:30:48;3.57;;;1.50;;
11384;SDS011;5747;56.748;13.882;2023-07-13T14:33:17;6.60;;;2.00;;
11384;SDS011;5747;56.748;13.882;2023-07-13T14:35:46;2.17;;;1.30;;
11384;SDS011;5747;56.748;13.882;2023-07-13T14:38:16;4.33;;;2.00;;
11384;SDS011;5747;56.748;13.882;2023-07-13T14:40:46;2.77;;;1.60;;
11384;SDS011;5747;56.748;13.882;2023-07-13T14:43:15;2.57;;;1.37;;
11384;SDS011;5747;56.748;13.882;2023-07-13T14:45:46;3.37;;;1.40;;
11384;SDS011;5747;56.748;13.882;2023-07-13T14:48:17;3.10;;;1.50;;
11384;SDS011;5747;56.748;13.882;2023-07-13T14:50:49;2.00;;;1.10;;
11384;SDS011;5747;56.748;13.882;2023-07-13T14:53:20;5.43;;;1.80;;
11384;SDS011;5747;56.748;13.882;2023-07-13T14:55:48;1.87;;;1.40;;
11384;SDS011;5747;56.748;13.882;2023-07-13T14:58:19;2.93;;;1.30;;
11384;SDS011;5747;56.748;13.882;2023-07-13T15:00:47;4.60;;;1.20;;
11384;SDS011;5747;56.748;13.882;2023-07-13T15:03:17;2.50;;;1.40;;
11384;SDS011;5747;56.748;13.882;2023-07-13T15:05:49;4.60;;;1.20;;
11384;SDS011;5747;56.748;13.882;2023-07-13T15:08:17;3.33;;;1.40;;